CheckWX is a tool to help pilots better visualize weather data.  It is not intended as a substitute for an official pre-flight weather briefing.

14:44:26 UTC

EPPO METAR
Poznań-Ławica Airport
Poznań, Poland
Current

14 mins ago

EPPO 201430Z 17015KT 9999 FEW032CB BKN032 22/13 Q1002
Observed
May-20 @ 14:30 UTC
Wind
  • 170° at 15 KTS
Visibility
10,000+ meters
Flight Rules
VFR
Cloud Levels
  • Few at 3,200' AGL
  • Broken at 3,200' AGL
Temperature
22°C / 72°F
Dewpoint
13°C / 55°F
Humidity
57%
Altimeter
29.59" Hg
Pressure
1001.92 hPa
Previous

44 mins ago

EPPO 201400Z 15012KT 9999 SCT030CB 23/15 Q1001
Observed
May-20 @ 14:00 UTC
Wind
  • 150° at 12 KTS
Visibility
10,000+ meters
Flight Rules
VFR
Cloud Levels
  • Scattered at 3,000' AGL
Temperature
23°C / 73°F
Dewpoint
15°C / 59°F
Humidity
61%
Altimeter
29.56" Hg
Pressure
1000.92 hPa
Previous

1 hour ago

EPPO 201330Z 14009KT 9999 SCT027CB 22/17 Q1002
Observed
May-20 @ 13:30 UTC
Wind
  • 140° at 9 KTS
Visibility
10,000+ meters
Flight Rules
VFR
Cloud Levels
  • Scattered at 2,700' AGL
Temperature
22°C / 72°F
Dewpoint
17°C / 63°F
Humidity
73%
Altimeter
29.59" Hg
Pressure
1001.92 hPa